Flughafen Braunschweig-Wolfsburg

Aus VATSIM Germany
Dies ist die bestätigte sowie die neueste Version dieser Seite.
Wechseln zu:Navigation, Suche
UnderCon icon.svg.pngDieser Artikel ist noch im Aufbau. Der Artikel kann daher unvollständig sein oder Fehler enthalten!


Braunschweig Wolfsburg Airport
ICAO / IATA EDVE / BWE
Koordinaten N52°19′9″  E010°33′22″
Höhe 90 m / 295 ft
Wetter EDVE 171650Z 30007KT 280V340 9999 FEW030 SCT046 17/11 Q1014
Pisten
Platzfrequenzen
Nur für Flugsimulationszwecke!



Informationen für Piloten und Lotsen
Pilotenbriefing

Standard Operating Procedures (SOP)

Letters of Agreement (LoAs)

Vorlage:Chartbox